createdAt,value
2019-01-16T00:00:03.624Z,81
2019-01-16T00:01:03.162Z,81
2019-01-16T00:02:03.446Z,81
2019-01-16T00:03:02.987Z,81
2019-01-16T00:04:02.779Z,81
2019-01-16T00:05:03.096Z,81
2019-01-16T00:06:03.468Z,81
2019-01-16T00:07:03.080Z,81
2019-01-16T00:08:03.549Z,81
2019-01-16T00:09:03.102Z,81
2019-01-16T00:10:03.745Z,81
2019-01-16T00:11:03.319Z,81
2019-01-16T00:12:03.514Z,81
2019-01-16T00:13:03.526Z,81
2019-01-16T00:14:02.995Z,81
2019-01-16T00:15:03.188Z,81
2019-01-16T00:16:02.853Z,81
2019-01-16T00:17:02.720Z,81
2019-01-16T00:18:03.083Z,81
2019-01-16T00:19:03.574Z,81
2019-01-16T00:20:03.546Z,81
2019-01-16T00:21:02.856Z,81
2019-01-16T00:22:03.365Z,81
2019-01-16T00:23:02.885Z,81
2019-01-16T00:24:03.643Z,81
2019-01-16T00:25:03.194Z,81
2019-01-16T00:26:03.566Z,81
2019-01-16T00:27:03.312Z,81
2019-01-16T00:28:02.687Z,81
2019-01-16T00:29:02.942Z,81
2019-01-16T00:30:03.127Z,81
2019-01-16T00:31:02.867Z,81
2019-01-16T00:32:02.809Z,81
2019-01-16T00:33:03.419Z,81
2019-01-16T00:34:02.954Z,81
2019-01-16T00:35:03.288Z,81
2019-01-16T00:36:02.885Z,81
2019-01-16T00:37:03.253Z,81
2019-01-16T00:38:02.694Z,81
2019-01-16T00:39:03.323Z,81
2019-01-16T00:40:03.369Z,81
2019-01-16T00:41:03.103Z,81
2019-01-16T00:42:03.272Z,81
2019-01-16T00:43:02.849Z,81
2019-01-16T00:44:03.146Z,81
2019-01-16T00:45:03.734Z,81
2019-01-16T00:46:02.684Z,81
2019-01-16T00:47:03.279Z,81
2019-01-16T00:48:02.964Z,81
2019-01-16T00:49:02.882Z,81
2019-01-16T00:50:03.123Z,81
2019-01-16T00:51:03.629Z,81
2019-01-16T00:52:03.150Z,81
2019-01-16T00:53:02.934Z,81
2019-01-16T00:54:03.058Z,81
2019-01-16T00:55:03.700Z,81
2019-01-16T00:56:03.695Z,81
2019-01-16T00:57:02.960Z,81
2019-01-16T00:58:03.538Z,81
2019-01-16T00:59:03.499Z,81
2019-01-16T01:00:03.612Z,81
2019-01-16T01:01:02.867Z,81
2019-01-16T01:02:03.411Z,81
2019-01-16T01:03:02.818Z,81
2019-01-16T01:04:02.682Z,81
2019-01-16T01:05:03.194Z,81
2019-01-16T01:06:03.734Z,81
2019-01-16T01:07:03.145Z,81
2019-01-16T01:08:02.862Z,81
2019-01-16T01:09:03.347Z,81
2019-01-16T01:10:03.155Z,81
2019-01-16T01:11:02.866Z,81
2019-01-16T01:12:03.390Z,81
2019-01-16T01:13:03.411Z,81
2019-01-16T01:14:02.863Z,81
2019-01-16T01:15:03.375Z,81
2019-01-16T01:16:03.306Z,81
2019-01-16T01:17:02.736Z,81
2019-01-16T01:18:02.895Z,81
2019-01-16T01:19:03.164Z,81
2019-01-16T01:20:02.573Z,81
2019-01-16T01:21:03.368Z,81
2019-01-16T01:22:03.190Z,81
2019-01-16T01:23:03.394Z,81
2019-01-16T01:24:03.128Z,81
2019-01-16T01:25:02.929Z,81
2019-01-16T01:26:02.826Z,81
2019-01-16T01:27:03.544Z,81
2019-01-16T01:28:03.373Z,81
2019-01-16T01:29:03.323Z,81
2019-01-16T01:30:03.455Z,81
2019-01-16T01:31:02.701Z,81
2019-01-16T01:32:03.341Z,81
2019-01-16T01:33:03.355Z,81
2019-01-16T01:34:02.843Z,81
2019-01-16T01:35:03.219Z,81
2019-01-16T01:36:03.120Z,81
2019-01-16T01:37:03.560Z,81
2019-01-16T01:38:02.893Z,81
2019-01-16T01:39:03.015Z,81
2019-01-16T01:40:03.655Z,81
2019-01-16T01:41:03.503Z,81
2019-01-16T01:42:03.164Z,81
2019-01-16T01:43:02.933Z,81
2019-01-16T01:44:02.693Z,81
2019-01-16T01:45:03.251Z,81
2019-01-16T01:46:02.886Z,81
2019-01-16T01:47:03.452Z,81
2019-01-16T01:48:03.071Z,81
2019-01-16T01:49:02.780Z,81
2019-01-16T01:50:03.109Z,81
2019-01-16T01:51:03.565Z,81
2019-01-16T01:52:02.584Z,81
2019-01-16T01:53:03.692Z,81
2019-01-16T01:54:02.675Z,81
2019-01-16T01:55:03.327Z,81
2019-01-16T01:56:03.405Z,81
2019-01-16T01:57:02.841Z,81
2019-01-16T01:58:02.948Z,81
2019-01-16T01:59:03.085Z,81
2019-01-16T02:00:03.262Z,81
2019-01-16T02:01:03.417Z,81
2019-01-16T02:02:03.489Z,81
2019-01-16T02:03:03.722Z,81
2019-01-16T02:04:03.537Z,81
2019-01-16T02:05:03.589Z,81
2019-01-16T02:06:03.338Z,81
2019-01-16T02:07:02.639Z,81
2019-01-16T02:08:03.513Z,81
2019-01-16T02:09:03.762Z,81
2019-01-16T02:10:03.547Z,81
2019-01-16T02:11:02.959Z,81
2019-01-16T02:12:03.465Z,81
2019-01-16T02:13:03.591Z,81
2019-01-16T02:14:02.761Z,81
2019-01-16T02:15:03.328Z,81
2019-01-16T02:16:03.449Z,81
2019-01-16T02:17:02.882Z,81
2019-01-16T02:18:03.504Z,81
2019-01-16T02:19:03.012Z,81
2019-01-16T02:20:03.036Z,81
2019-01-16T02:21:03.409Z,81
2019-01-16T02:22:03.475Z,81
2019-01-16T02:23:03.404Z,81
2019-01-16T02:24:03.538Z,81
2019-01-16T02:25:03.346Z,81
2019-01-16T02:26:03.722Z,81
2019-01-16T02:27:02.904Z,81
2019-01-16T02:28:03.219Z,81
2019-01-16T02:29:03.259Z,81
2019-01-16T02:30:03.086Z,81
2019-01-16T02:31:03.147Z,81
2019-01-16T02:32:03.570Z,81
2019-01-16T02:33:03.448Z,81
2019-01-16T02:34:03.614Z,81
2019-01-16T02:35:03.616Z,81
2019-01-16T02:36:03.446Z,81
2019-01-16T02:37:03.421Z,81
2019-01-16T02:38:02.802Z,81
2019-01-16T02:39:03.014Z,81
2019-01-16T02:40:02.923Z,81
2019-01-16T02:41:02.766Z,81
2019-01-16T02:42:02.791Z,81
2019-01-16T02:43:02.661Z,81
2019-01-16T02:44:03.087Z,81
2019-01-16T02:45:03.496Z,81
2019-01-16T02:46:03.207Z,81
2019-01-16T02:47:03.131Z,81
2019-01-16T02:48:03.010Z,81
2019-01-16T02:49:02.808Z,81
2019-01-16T02:50:03.356Z,81
2019-01-16T02:51:03.156Z,81
2019-01-16T02:52:04.012Z,81
2019-01-16T02:53:03.738Z,81
2019-01-16T02:54:02.751Z,81
2019-01-16T02:55:03.180Z,81
2019-01-16T02:56:03.340Z,81
2019-01-16T02:57:02.939Z,81
2019-01-16T02:58:03.238Z,81
2019-01-16T02:59:02.972Z,81
2019-01-16T03:00:02.909Z,81
2019-01-16T03:01:03.500Z,81
2019-01-16T03:02:03.648Z,81
2019-01-16T03:03:02.808Z,81
2019-01-16T03:04:02.903Z,81
2019-01-16T03:05:02.986Z,81
2019-01-16T03:06:03.685Z,81
2019-01-16T03:07:03.248Z,81
2019-01-16T03:08:02.708Z,81
2019-01-16T03:09:03.447Z,81
2019-01-16T03:10:03.275Z,81
2019-01-16T03:11:02.819Z,81
2019-01-16T03:12:03.238Z,81
2019-01-16T03:13:03.122Z,81
2019-01-16T03:14:03.765Z,81
2019-01-16T03:15:03.270Z,81
2019-01-16T03:16:02.912Z,81
2019-01-16T03:17:03.549Z,81
2019-01-16T03:18:02.886Z,81
2019-01-16T03:19:04.976Z,81
2019-01-16T03:20:03.527Z,81
2019-01-16T03:21:02.940Z,81
2019-01-16T03:22:03.597Z,81
2019-01-16T03:23:03.050Z,81
2019-01-16T03:24:03.526Z,81
2019-01-16T03:25:03.786Z,81
2019-01-16T03:26:03.119Z,81
2019-01-16T03:27:03.054Z,81
2019-01-16T03:28:03.124Z,81
2019-01-16T03:29:02.685Z,81
2019-01-16T03:30:03.458Z,82
2019-01-16T03:31:03.522Z,82
2019-01-16T03:32:03.121Z,82
2019-01-16T03:33:03.358Z,82
2019-01-16T03:34:02.748Z,82
2019-01-16T03:35:03.446Z,82
2019-01-16T03:36:02.854Z,82
2019-01-16T03:37:02.901Z,82
2019-01-16T03:38:03.243Z,82
2019-01-16T03:39:02.735Z,82
2019-01-16T03:40:03.761Z,82
2019-01-16T03:41:03.165Z,82
2019-01-16T03:42:02.995Z,82
2019-01-16T03:43:03.326Z,82
2019-01-16T03:44:03.429Z,82
2019-01-16T03:45:03.572Z,82
2019-01-16T03:46:02.842Z,82
2019-01-16T03:47:03.372Z,82
2019-01-16T03:48:03.550Z,82
2019-01-16T03:49:03.175Z,82
2019-01-16T03:50:02.820Z,82
2019-01-16T03:51:02.691Z,82
2019-01-16T03:52:02.844Z,82
2019-01-16T03:53:03.634Z,82
2019-01-16T03:54:03.145Z,82
2019-01-16T03:55:03.044Z,82
2019-01-16T03:56:03.089Z,82
2019-01-16T03:57:02.822Z,82
2019-01-16T03:58:02.824Z,82
2019-01-16T03:59:03.602Z,82
2019-01-16T04:00:03.518Z,82
2019-01-16T04:01:03.111Z,82
2019-01-16T04:02:02.838Z,82
2019-01-16T04:03:03.552Z,82
2019-01-16T04:04:03.787Z,82
2019-01-16T04:05:03.541Z,82
2019-01-16T04:06:03.785Z,81
2019-01-16T04:07:03.015Z,81
2019-01-16T04:08:03.098Z,82
2019-01-16T04:09:03.142Z,81
2019-01-16T04:10:03.008Z,81
2019-01-16T04:11:03.550Z,81
2019-01-16T04:12:02.861Z,81
2019-01-16T04:13:03.297Z,81
2019-01-16T04:14:02.820Z,81
2019-01-16T04:15:03.238Z,81
2019-01-16T04:16:03.011Z,81
2019-01-16T04:17:02.765Z,81
2019-01-16T04:18:03.149Z,81
2019-01-16T04:19:03.368Z,81
2019-01-16T04:20:03.082Z,81
2019-01-16T04:21:02.753Z,81
2019-01-16T04:22:02.936Z,81
2019-01-16T04:23:02.985Z,81
2019-01-16T04:24:03.135Z,81
2019-01-16T04:25:03.373Z,81
2019-01-16T04:26:03.245Z,81
2019-01-16T04:27:03.430Z,81
2019-01-16T04:28:03.554Z,81
2019-01-16T04:29:02.740Z,81
2019-01-16T04:30:02.673Z,82
2019-01-16T04:31:03.638Z,82
2019-01-16T04:32:03.390Z,82
2019-01-16T04:33:03.493Z,82
2019-01-16T04:34:02.935Z,82
2019-01-16T04:35:03.291Z,82
2019-01-16T04:36:02.824Z,82
2019-01-16T04:37:03.047Z,82
2019-01-16T04:38:02.964Z,82
2019-01-16T04:39:02.959Z,82
2019-01-16T04:40:03.042Z,82
2019-01-16T04:41:03.141Z,82
2019-01-16T04:42:03.118Z,82
2019-01-16T04:43:02.831Z,82
2019-01-16T04:44:03.842Z,82
2019-01-16T04:45:02.894Z,82
2019-01-16T04:46:03.475Z,82
2019-01-16T04:47:03.497Z,82
2019-01-16T04:48:02.755Z,82
2019-01-16T04:49:03.341Z,82
2019-01-16T04:50:03.122Z,82
2019-01-16T04:51:03.081Z,82
2019-01-16T04:52:03.493Z,82
2019-01-16T04:53:02.708Z,82
2019-01-16T04:54:03.025Z,82
2019-01-16T04:55:02.975Z,82
2019-01-16T04:56:02.770Z,82
2019-01-16T04:57:02.825Z,82
2019-01-16T04:58:02.879Z,82
2019-01-16T04:59:02.775Z,82
2019-01-16T05:00:02.924Z,82
2019-01-16T05:01:03.333Z,82
2019-01-16T05:02:03.042Z,82
2019-01-16T05:03:03.535Z,82
2019-01-16T05:04:03.580Z,82
2019-01-16T05:05:03.511Z,82
2019-01-16T05:06:03.245Z,82
2019-01-16T05:07:03.422Z,82
2019-01-16T05:08:03.636Z,82
2019-01-16T05:09:03.141Z,82
2019-01-16T05:10:03.279Z,82
2019-01-16T05:11:02.894Z,82
2019-01-16T05:12:02.919Z,82
2019-01-16T05:13:02.590Z,82
2019-01-16T05:14:03.772Z,82
2019-01-16T05:15:03.001Z,82
2019-01-16T05:16:03.406Z,82
2019-01-16T05:17:03.201Z,82
2019-01-16T05:18:03.464Z,82
2019-01-16T05:19:03.408Z,82
2019-01-16T05:20:03.564Z,82
2019-01-16T05:21:02.628Z,82
2019-01-16T05:22:02.833Z,82
2019-01-16T05:23:02.749Z,82
2019-01-16T05:24:02.936Z,82
2019-01-16T05:25:02.887Z,82
2019-01-16T05:26:03.272Z,82
2019-01-16T05:27:02.799Z,82
2019-01-16T05:28:03.451Z,83
2019-01-16T05:29:03.236Z,82
2019-01-16T05:30:03.225Z,83
2019-01-16T05:31:02.647Z,83
2019-01-16T05:32:03.288Z,83
2019-01-16T05:33:03.525Z,83
2019-01-16T05:34:03.147Z,83
2019-01-16T05:35:02.969Z,83
2019-01-16T05:36:03.691Z,83
2019-01-16T05:37:02.863Z,83
2019-01-16T05:38:02.810Z,83
2019-01-16T05:39:02.839Z,83
2019-01-16T05:40:03.656Z,83
2019-01-16T05:41:03.505Z,83
2019-01-16T05:42:02.835Z,83
2019-01-16T05:43:03.137Z,83
2019-01-16T05:44:02.843Z,83
2019-01-16T05:45:03.387Z,83
2019-01-16T05:46:03.571Z,83
2019-01-16T05:47:03.396Z,83
2019-01-16T05:48:03.145Z,83
2019-01-16T05:49:03.351Z,83
2019-01-16T05:50:03.454Z,83
2019-01-16T05:51:02.687Z,83
2019-01-16T05:52:03.414Z,83
2019-01-16T05:53:03.468Z,83
2019-01-16T05:54:03.062Z,83
2019-01-16T05:55:03.675Z,83
2019-01-16T05:56:02.884Z,83
2019-01-16T05:57:02.785Z,83
2019-01-16T05:58:03.699Z,83
2019-01-16T05:59:02.913Z,83
2019-01-16T06:00:03.363Z,83
2019-01-16T06:01:03.501Z,83
2019-01-16T06:02:02.814Z,83
2019-01-16T06:03:03.392Z,83
2019-01-16T06:04:03.409Z,83
2019-01-16T06:05:03.284Z,83
2019-01-16T06:06:03.097Z,83
2019-01-16T06:07:02.712Z,83
2019-01-16T06:08:03.347Z,83
2019-01-16T06:09:03.123Z,83
2019-01-16T06:10:02.791Z,83
2019-01-16T06:11:02.873Z,83
2019-01-16T06:12:03.408Z,83
2019-01-16T06:13:03.636Z,83
2019-01-16T06:14:02.922Z,83
2019-01-16T06:15:02.758Z,83
2019-01-16T06:16:03.429Z,83
2019-01-16T06:17:03.328Z,83
2019-01-16T06:18:03.335Z,83
2019-01-16T06:19:02.986Z,83
2019-01-16T06:20:03.423Z,83
2019-01-16T06:21:02.860Z,83
2019-01-16T06:22:03.541Z,83
2019-01-16T06:23:03.642Z,83
2019-01-16T06:24:03.435Z,83
2019-01-16T06:25:03.228Z,83
2019-01-16T06:26:02.747Z,83
2019-01-16T06:27:02.733Z,83
2019-01-16T06:28:03.165Z,83
2019-01-16T06:29:03.437Z,83
2019-01-16T06:30:03.327Z,83
2019-01-16T06:31:03.152Z,83
2019-01-16T06:32:03.533Z,83
2019-01-16T06:33:03.721Z,83
2019-01-16T06:34:03.662Z,83
2019-01-16T06:35:03.307Z,83
2019-01-16T06:36:03.278Z,83
2019-01-16T06:37:02.890Z,83
2019-01-16T06:38:02.839Z,83
2019-01-16T06:39:03.729Z,83
2019-01-16T06:40:03.656Z,83
2019-01-16T06:41:03.278Z,83
2019-01-16T06:42:03.377Z,83
2019-01-16T06:43:03.210Z,83
2019-01-16T06:44:03.324Z,83
2019-01-16T06:45:02.826Z,83
2019-01-16T06:46:03.159Z,83
2019-01-16T06:47:03.285Z,83
2019-01-16T06:48:02.658Z,83
2019-01-16T06:49:02.789Z,83
2019-01-16T06:50:03.003Z,83
2019-01-16T06:51:03.658Z,83
2019-01-16T06:52:03.536Z,83
2019-01-16T06:53:03.007Z,83
2019-01-16T06:54:02.648Z,83
2019-01-16T06:55:03.194Z,83
2019-01-16T06:56:02.863Z,83
2019-01-16T06:57:02.963Z,83
2019-01-16T06:58:03.216Z,83
2019-01-16T06:59:03.119Z,83
2019-01-16T07:00:03.043Z,83
2019-01-16T07:01:03.059Z,83
2019-01-16T07:02:02.930Z,83
2019-01-16T07:03:02.594Z,83
2019-01-16T07:04:03.551Z,83
2019-01-16T07:05:03.168Z,83
2019-01-16T07:06:03.347Z,83
2019-01-16T07:07:03.564Z,83
2019-01-16T07:08:02.640Z,83
2019-01-16T07:09:03.556Z,83
2019-01-16T07:10:03.135Z,83
2019-01-16T07:11:03.642Z,83
2019-01-16T07:12:02.727Z,83
2019-01-16T07:13:03.359Z,83
2019-01-16T07:14:03.001Z,83
2019-01-16T07:15:03.358Z,83
2019-01-16T07:16:03.438Z,83
2019-01-16T07:17:03.595Z,83
2019-01-16T07:18:02.961Z,83
2019-01-16T07:19:03.503Z,83
2019-01-16T07:20:10.129Z,83
2019-01-16T07:21:02.976Z,83
2019-01-16T07:22:03.543Z,83
2019-01-16T07:23:02.906Z,83
2019-01-16T07:24:03.260Z,83
2019-01-16T07:25:02.846Z,83
2019-01-16T07:26:03.305Z,83
2019-01-16T07:27:03.009Z,83
2019-01-16T07:28:03.135Z,83
2019-01-16T07:29:02.834Z,83
2019-01-16T07:30:03.096Z,83
2019-01-16T07:31:02.929Z,83
2019-01-16T07:32:03.400Z,83
2019-01-16T07:33:03.489Z,83
2019-01-16T07:34:03.687Z,83
2019-01-16T07:35:03.446Z,83
2019-01-16T07:36:03.644Z,83
2019-01-16T07:37:03.187Z,83
2019-01-16T07:38:03.289Z,83
2019-01-16T07:39:03.600Z,83
2019-01-16T07:40:03.296Z,83
2019-01-16T07:41:02.930Z,83
2019-01-16T07:42:03.576Z,83
2019-01-16T07:43:03.452Z,83
2019-01-16T07:44:03.393Z,83
2019-01-16T07:45:03.260Z,83
2019-01-16T07:46:02.992Z,83
2019-01-16T07:47:02.932Z,83
2019-01-16T07:48:03.098Z,83
2019-01-16T07:49:02.820Z,83
2019-01-16T07:50:03.283Z,83
2019-01-16T07:51:02.507Z,83
2019-01-16T07:52:02.776Z,83
2019-01-16T07:53:02.918Z,83
2019-01-16T07:54:02.734Z,83
2019-01-16T07:55:03.196Z,83
2019-01-16T07:56:02.587Z,83
2019-01-16T07:57:03.208Z,83
2019-01-16T07:58:03.759Z,83
2019-01-16T07:59:03.339Z,83
2019-01-16T08:00:03.079Z,83
2019-01-16T08:01:02.974Z,83
2019-01-16T08:02:03.622Z,83
2019-01-16T08:03:03.544Z,83
2019-01-16T08:04:03.199Z,83
2019-01-16T08:05:03.433Z,83
2019-01-16T08:06:03.363Z,83
2019-01-16T08:07:03.080Z,83
2019-01-16T08:08:02.878Z,83
2019-01-16T08:09:03.079Z,83
2019-01-16T08:10:02.721Z,83
2019-01-16T08:11:03.491Z,83
2019-01-16T08:12:03.263Z,83
2019-01-16T08:13:03.163Z,83
2019-01-16T08:14:02.992Z,83
2019-01-16T08:15:02.958Z,83
2019-01-16T08:16:03.182Z,84
2019-01-16T08:17:03.298Z,83
2019-01-16T08:18:03.219Z,84
2019-01-16T08:19:03.197Z,84
2019-01-16T08:20:03.476Z,83
2019-01-16T08:21:02.592Z,83
2019-01-16T08:22:03.373Z,83
2019-01-16T08:23:02.815Z,83
2019-01-16T08:24:02.705Z,83
2019-01-16T08:25:03.271Z,83
2019-01-16T08:26:03.028Z,83
2019-01-16T08:27:02.808Z,83
2019-01-16T08:28:02.743Z,83
2019-01-16T08:29:03.156Z,83
2019-01-16T08:30:03.132Z,83
2019-01-16T08:31:03.490Z,83
2019-01-16T08:32:03.134Z,83
2019-01-16T08:33:03.416Z,83
2019-01-16T08:34:02.575Z,83
2019-01-16T08:35:03.245Z,83
2019-01-16T08:36:02.864Z,83
2019-01-16T08:37:03.562Z,83
2019-01-16T08:38:02.724Z,83
2019-01-16T08:39:02.785Z,83
2019-01-16T08:40:03.732Z,83
2019-01-16T08:41:03.375Z,83
2019-01-16T08:42:03.188Z,83
2019-01-16T08:43:03.158Z,83
2019-01-16T08:44:03.410Z,83
2019-01-16T08:45:03.538Z,83
2019-01-16T08:46:02.996Z,83
2019-01-16T08:47:02.900Z,83
2019-01-16T08:48:03.163Z,83
2019-01-16T08:49:03.347Z,83
2019-01-16T08:50:02.999Z,83
2019-01-16T08:51:03.609Z,83
2019-01-16T08:52:02.622Z,83
2019-01-16T08:53:03.022Z,83
2019-01-16T08:54:03.327Z,83
2019-01-16T08:55:02.976Z,83
2019-01-16T08:56:02.939Z,83
2019-01-16T08:57:03.351Z,83
2019-01-16T08:58:02.579Z,83
2019-01-16T08:59:02.873Z,83
2019-01-16T09:00:03.088Z,83
2019-01-16T09:01:03.512Z,82
2019-01-16T09:02:03.101Z,82
2019-01-16T09:03:03.446Z,82
2019-01-16T09:04:03.404Z,82
2019-01-16T09:05:03.238Z,82
2019-01-16T09:06:03.713Z,82
2019-01-16T09:07:03.317Z,82
2019-01-16T09:08:03.027Z,82
2019-01-16T09:09:02.842Z,82
2019-01-16T09:10:03.179Z,82
2019-01-16T09:11:03.204Z,82
2019-01-16T09:12:03.553Z,82
2019-01-16T09:13:03.471Z,82
2019-01-16T09:14:03.735Z,82
2019-01-16T09:15:02.842Z,81
2019-01-16T09:16:03.002Z,81
2019-01-16T09:17:03.713Z,81
2019-01-16T09:18:03.294Z,81
2019-01-16T09:19:03.004Z,81
2019-01-16T09:20:02.823Z,81
2019-01-16T09:21:03.447Z,81
2019-01-16T09:22:03.464Z,80
2019-01-16T09:23:03.409Z,80
2019-01-16T09:24:03.064Z,80
2019-01-16T09:25:02.665Z,80
2019-01-16T09:26:03.309Z,80
2019-01-16T09:27:03.437Z,80
2019-01-16T09:28:03.070Z,80
2019-01-16T09:29:03.460Z,80
2019-01-16T09:30:02.978Z,80
2019-01-16T09:31:03.180Z,80
2019-01-16T09:32:02.981Z,79
2019-01-16T09:33:03.317Z,79
2019-01-16T09:34:03.750Z,79
2019-01-16T09:35:03.074Z,78
2019-01-16T09:36:02.749Z,78
2019-01-16T09:37:02.906Z,78
2019-01-16T09:38:03.610Z,78
2019-01-16T09:39:03.405Z,78
2019-01-16T09:40:03.065Z,78
2019-01-16T09:41:03.374Z,78
2019-01-16T09:42:02.923Z,78
2019-01-16T09:43:02.731Z,77
2019-01-16T09:44:02.885Z,77
2019-01-16T09:45:03.238Z,77
2019-01-16T09:46:02.572Z,77
2019-01-16T09:47:03.388Z,77
2019-01-16T09:48:03.179Z,76
2019-01-16T09:49:03.772Z,76
2019-01-16T09:50:03.398Z,76
2019-01-16T09:51:03.422Z,76
2019-01-16T09:52:03.496Z,76
2019-01-16T09:53:02.922Z,76
2019-01-16T09:54:02.998Z,77
2019-01-16T09:55:03.255Z,76
2019-01-16T09:56:02.906Z,76
2019-01-16T09:57:03.613Z,76
2019-01-16T09:58:02.840Z,76
2019-01-16T09:59:03.532Z,76
2019-01-16T10:00:03.315Z,76
2019-01-16T10:01:03.122Z,75
2019-01-16T10:02:03.340Z,75
2019-01-16T10:03:03.619Z,75
2019-01-16T10:04:02.979Z,75
2019-01-16T10:05:02.968Z,75
2019-01-16T10:06:02.863Z,74
2019-01-16T10:07:02.892Z,75
2019-01-16T10:08:02.990Z,75
2019-01-16T10:09:03.157Z,74
2019-01-16T10:10:03.766Z,74
2019-01-16T10:11:02.742Z,74
2019-01-16T10:12:02.723Z,74
2019-01-16T10:13:03.472Z,74
2019-01-16T10:14:03.568Z,74
2019-01-16T10:15:02.921Z,74
2019-01-16T10:16:02.873Z,74
2019-01-16T10:17:03.017Z,74
2019-01-16T10:18:04.694Z,73
2019-01-16T10:19:03.560Z,73
2019-01-16T10:20:03.218Z,73
2019-01-16T10:21:03.500Z,73
2019-01-16T10:22:03.513Z,72
2019-01-16T10:23:03.526Z,72
2019-01-16T10:24:03.568Z,72
2019-01-16T10:25:03.168Z,72
2019-01-16T10:26:02.825Z,72
2019-01-16T10:27:02.719Z,72
2019-01-16T10:28:02.667Z,71
2019-01-16T10:29:03.069Z,71
2019-01-16T10:30:03.035Z,71
2019-01-16T10:31:03.356Z,72
2019-01-16T10:32:03.259Z,72
2019-01-16T10:33:02.932Z,72
2019-01-16T10:34:02.880Z,71
2019-01-16T10:35:03.068Z,71
2019-01-16T10:36:03.569Z,71
2019-01-16T10:37:02.797Z,71
2019-01-16T10:38:02.999Z,70
2019-01-16T10:39:03.038Z,70
2019-01-16T10:40:03.743Z,70
2019-01-16T10:41:03.654Z,70
2019-01-16T10:42:03.559Z,70
2019-01-16T10:43:03.494Z,69
2019-01-16T10:44:02.800Z,70
2019-01-16T10:45:03.026Z,69
2019-01-16T10:46:03.392Z,69
2019-01-16T10:47:03.043Z,69
2019-01-16T10:48:03.124Z,68
2019-01-16T10:49:03.639Z,68
2019-01-16T10:50:02.674Z,68
2019-01-16T10:51:03.540Z,68
2019-01-16T10:52:03.335Z,68
2019-01-16T10:53:02.599Z,68
2019-01-16T10:54:03.287Z,68
2019-01-16T10:55:03.018Z,67
2019-01-16T10:56:03.367Z,67
2019-01-16T10:57:03.572Z,67
2019-01-16T10:58:03.479Z,66
2019-01-16T10:59:03.209Z,66
2019-01-16T11:00:02.950Z,66
2019-01-16T11:01:03.287Z,66
2019-01-16T11:02:02.806Z,66
2019-01-16T11:03:03.211Z,65
2019-01-16T11:04:02.920Z,65
2019-01-16T11:05:03.447Z,65
2019-01-16T11:06:03.638Z,64
2019-01-16T11:07:03.352Z,64
2019-01-16T11:08:03.518Z,64
2019-01-16T11:09:03.594Z,63
2019-01-16T11:10:03.464Z,63
2019-01-16T11:11:02.936Z,63
2019-01-16T11:12:02.883Z,63
2019-01-16T11:13:03.222Z,63
2019-01-16T11:14:03.089Z,63
2019-01-16T11:15:02.779Z,63
2019-01-16T11:16:03.482Z,63
2019-01-16T11:17:03.217Z,63
2019-01-16T11:18:03.275Z,63
2019-01-16T11:19:03.169Z,63
2019-01-16T11:20:03.330Z,63
2019-01-16T11:21:11.326Z,63
2019-01-16T11:22:02.723Z,62
2019-01-16T11:23:03.190Z,62
2019-01-16T11:24:03.524Z,62
2019-01-16T11:25:03.456Z,62
2019-01-16T11:26:03.145Z,61
2019-01-16T11:27:02.989Z,61
2019-01-16T11:28:03.192Z,61
2019-01-16T11:29:02.747Z,61
2019-01-16T11:30:03.659Z,61
2019-01-16T11:31:02.827Z,61
2019-01-16T11:32:03.551Z,61
2019-01-16T11:33:03.550Z,60
2019-01-16T11:34:02.825Z,60
2019-01-16T11:35:03.577Z,60
2019-01-16T11:36:03.644Z,60
2019-01-16T11:37:03.532Z,60
2019-01-16T11:38:03.138Z,60
2019-01-16T11:39:03.403Z,60
2019-01-16T11:40:05.225Z,60
2019-01-16T11:41:02.646Z,60
2019-01-16T11:42:03.465Z,60
2019-01-16T11:43:02.850Z,59
2019-01-16T11:44:02.910Z,59
2019-01-16T11:45:03.277Z,59
2019-01-16T11:46:03.080Z,58
2019-01-16T11:47:02.929Z,58
2019-01-16T11:48:03.179Z,58
2019-01-16T11:49:02.937Z,58
2019-01-16T11:50:02.733Z,58
2019-01-16T11:51:02.970Z,58
2019-01-16T11:52:03.532Z,58
2019-01-16T11:53:03.614Z,58
2019-01-16T11:54:03.116Z,58
2019-01-16T11:55:03.466Z,58
2019-01-16T11:56:03.110Z,57
2019-01-16T11:57:02.711Z,57
2019-01-16T11:58:03.131Z,57
2019-01-16T11:59:02.894Z,57
2019-01-16T12:00:03.171Z,57
2019-01-16T12:01:03.092Z,58
2019-01-16T12:02:03.616Z,58
2019-01-16T12:03:02.619Z,57
2019-01-16T12:04:02.679Z,57
2019-01-16T12:05:03.499Z,57
2019-01-16T12:06:03.328Z,57
2019-01-16T12:07:03.028Z,57
2019-01-16T12:08:02.990Z,57
2019-01-16T12:09:03.061Z,57
2019-01-16T12:10:03.406Z,57
2019-01-16T12:11:02.830Z,57
2019-01-16T12:12:03.110Z,57
2019-01-16T12:13:03.349Z,56
2019-01-16T12:14:03.259Z,56
2019-01-16T12:15:03.638Z,57
2019-01-16T12:16:03.063Z,57
2019-01-16T12:17:03.410Z,57
2019-01-16T12:18:03.096Z,57
2019-01-16T12:19:02.749Z,57
2019-01-16T12:20:03.294Z,57
2019-01-16T12:21:03.130Z,57
2019-01-16T12:22:03.209Z,57
2019-01-16T12:23:03.215Z,57
2019-01-16T12:24:02.576Z,58
2019-01-16T12:25:02.992Z,58
2019-01-16T12:26:08.508Z,58
2019-01-16T12:27:02.629Z,58
2019-01-16T12:28:03.531Z,58
2019-01-16T12:29:03.324Z,58
2019-01-16T12:30:02.739Z,58
2019-01-16T12:31:03.690Z,58
2019-01-16T12:32:02.864Z,58
2019-01-16T12:33:03.618Z,58
2019-01-16T12:34:03.538Z,58
2019-01-16T12:35:03.580Z,59
2019-01-16T12:36:03.503Z,59
2019-01-16T12:37:03.143Z,59
2019-01-16T12:38:03.287Z,59
2019-01-16T12:39:02.778Z,59
2019-01-16T12:40:03.285Z,59
2019-01-16T12:41:02.950Z,59
2019-01-16T12:42:03.171Z,59
2019-01-16T12:43:03.523Z,59
2019-01-16T12:44:03.555Z,59
2019-01-16T12:45:03.648Z,59
2019-01-16T12:46:02.737Z,59
2019-01-16T12:47:02.918Z,59
2019-01-16T12:48:03.505Z,60
2019-01-16T12:49:03.401Z,60
2019-01-16T12:50:03.605Z,60
2019-01-16T12:51:03.660Z,60
2019-01-16T12:52:03.494Z,60
2019-01-16T12:53:03.062Z,60
2019-01-16T12:54:03.108Z,60
2019-01-16T12:55:03.229Z,60
2019-01-16T12:56:03.750Z,60
2019-01-16T12:57:02.942Z,60
2019-01-16T12:58:03.813Z,61
2019-01-16T12:59:02.797Z,61
2019-01-16T13:00:03.224Z,60
2019-01-16T13:01:03.843Z,60
2019-01-16T13:02:02.759Z,61
2019-01-16T13:03:03.520Z,61
2019-01-16T13:04:03.189Z,61
2019-01-16T13:05:03.803Z,61
2019-01-16T13:06:03.473Z,61
2019-01-16T13:07:03.539Z,61
2019-01-16T13:08:03.067Z,61
2019-01-16T13:09:03.495Z,61
2019-01-16T13:10:03.114Z,61
2019-01-16T13:11:02.996Z,61
2019-01-16T13:12:03.374Z,61
2019-01-16T13:13:03.393Z,62
2019-01-16T13:14:03.152Z,62
2019-01-16T13:15:03.612Z,62
2019-01-16T13:16:03.639Z,62
2019-01-16T13:17:03.250Z,62
2019-01-16T13:18:03.738Z,62
2019-01-16T13:19:02.723Z,62
2019-01-16T13:20:03.509Z,62
2019-01-16T13:21:03.483Z,62
2019-01-16T13:22:02.930Z,62
2019-01-16T13:23:03.310Z,62
2019-01-16T13:24:02.985Z,62
2019-01-16T13:25:03.174Z,62
2019-01-16T13:26:02.774Z,62
2019-01-16T13:27:03.354Z,62
2019-01-16T13:28:03.833Z,62
2019-01-16T13:29:03.756Z,62
2019-01-16T13:30:03.623Z,62
2019-01-16T13:31:03.428Z,62
2019-01-16T13:32:03.487Z,62
2019-01-16T13:33:03.009Z,62
2019-01-16T13:34:02.791Z,62
2019-01-16T13:35:02.863Z,62
2019-01-16T13:36:03.257Z,62
2019-01-16T13:37:03.821Z,62
2019-01-16T13:38:02.961Z,62
2019-01-16T13:39:03.199Z,62
2019-01-16T13:40:03.445Z,62
2019-01-16T13:41:03.460Z,62
2019-01-16T13:42:02.697Z,62
2019-01-16T13:43:03.386Z,63
2019-01-16T13:44:03.297Z,63
2019-01-16T13:45:03.190Z,63
2019-01-16T13:46:03.331Z,63
2019-01-16T13:47:02.941Z,63
2019-01-16T13:48:03.768Z,63
2019-01-16T13:49:03.620Z,63
2019-01-16T13:50:02.772Z,63
2019-01-16T13:51:03.536Z,63
2019-01-16T13:52:02.728Z,63
2019-01-16T13:53:03.620Z,63
2019-01-16T13:54:03.324Z,63
2019-01-16T13:55:02.862Z,63
2019-01-16T13:56:03.538Z,63
2019-01-16T13:57:03.237Z,63
2019-01-16T13:58:03.299Z,63
2019-01-16T13:59:03.486Z,63
2019-01-16T14:00:03.555Z,63
2019-01-16T14:01:02.979Z,63
2019-01-16T14:02:02.848Z,63
2019-01-16T14:03:03.407Z,63
2019-01-16T14:04:02.842Z,63
2019-01-16T14:05:03.328Z,63
2019-01-16T14:06:02.872Z,63
2019-01-16T14:07:03.814Z,63
2019-01-16T14:08:03.216Z,63
2019-01-16T14:09:03.588Z,63
2019-01-16T14:10:03.787Z,63
2019-01-16T14:11:03.547Z,64
2019-01-16T14:12:02.980Z,64
2019-01-16T14:13:03.126Z,64
2019-01-16T14:14:03.683Z,64
2019-01-16T14:15:03.838Z,64